Time;durP1;ratioP1;P1;durP2;ratioP2;P2;SDS_P1;SDS_P2;PMS_P1;PMS_P2;Temp;Humidity;BMP_temperature;BMP_pressure;BME280_temperature;BME280_humidity;BME280_pressure;Samples;Min_cycle;Max_cycle;Signal;HPM_P1;HPM_P2
2024/02/03 00:00:30;;;;;;;;;26.40;23.00;;;;;9.85;77.61;103201.31;2030648;27;3584604;-78
2024/02/03 00:01:42;;;;;;;;;27.67;22.33;;;;;9.85;77.81;103186.41;2026167;27;3589858;-77
2024/02/03 00:02:54;;;;;;;;;29.80;24.00;;;;;9.85;77.77;103196.91;2053892;27;3579362;-77
2024/02/03 00:04:06;;;;;;;;;28.00;23.67;;;;;9.85;77.76;103189.03;2048501;27;3592952;-78
2024/02/03 00:05:18;;;;;;;;;22.20;17.60;;;;;9.86;77.75;103197.78;2055386;27;3581511;-77
2024/02/03 00:06:30;;;;;;;;;29.33;20.67;;;;;9.85;77.54;103191.66;2025159;27;3600714;-77
2024/02/03 00:07:42;;;;;;;;;22.20;20.40;;;;;9.87;77.73;103199.56;2040030;27;3565850;-78
2024/02/03 00:08:54;;;;;;;;;20.67;20.67;;;;;9.87;77.42;103199.56;2036600;28;3565873;-78
2024/02/03 00:10:06;;;;;;;;;24.00;20.00;;;;;9.87;77.57;103195.19;2033273;28;3584079;-78
2024/02/03 00:11:17;;;;;;;;;26.67;24.67;;;;;9.88;77.86;103186.44;2022050;28;3594025;-77
2024/02/03 00:12:29;;;;;;;;;19.60;18.80;;;;;9.87;77.68;103192.56;2055102;27;3564787;-78
2024/02/03 00:13:41;;;;;;;;;22.00;21.33;;;;;9.86;77.83;103182.03;2049372;27;3573210;-78
2024/02/03 00:14:52;;;;;;;;;21.50;14.50;;;;;9.87;77.83;103182.06;2042747;27;2822117;-78
2024/02/03 00:16:06;;;;;;;;;22.40;19.00;;;;;9.87;77.74;103189.94;2049852;27;3580443;-77
2024/02/03 00:17:16;;;;;;;;;23.00;20.50;;;;;9.87;77.68;103195.19;2027425;27;2838799;-78
2024/02/03 00:18:29;;;;;;;;;22.67;18.33;;;;;9.89;77.64;103187.31;2018461;27;3571103;-78
2024/02/03 00:19:40;;;;;;;;;18.00;15.50;;;;;9.89;77.67;103184.69;2020938;27;2815970;-78
2024/02/03 00:20:52;;;;;;;;;19.33;18.33;;;;;9.89;77.55;103177.69;1999448;28;3570012;-78
2024/02/03 00:22:04;;;;;;;;;17.00;15.00;;;;;9.89;77.84;103180.31;2028774;28;2812759;-78
2024/02/03 00:23:14;;;;;;;;;20.50;16.50;;;;;9.90;77.63;103186.47;2025077;27;2835695;-78
2024/02/03 00:24:26;;;;;;;;;22.00;19.00;;;;;9.90;77.66;103187.31;2033499;28;2834715;-77
2024/02/03 00:25:40;;;;;;;;;20.00;17.14;;;;;9.90;77.80;103186.47;2034001;27;1830553;-78
2024/02/03 00:26:52;;;;;;;;;20.00;17.33;;;;;9.90;77.60;103183.84;2032376;27;3561699;-77
2024/02/03 00:28:03;;;;;;;;;25.00;19.33;;;;;9.90;77.76;103184.69;2025128;27;3566883;-78
2024/02/03 00:29:15;;;;;;;;;21.00;18.00;;;;;9.92;77.82;103183.84;2042695;27;3577712;-78
2024/02/03 00:30:28;;;;;;;;;20.33;16.00;;;;;9.91;77.78;103185.59;2054078;27;2814817;-78
2024/02/03 00:31:40;;;;;;;;;22.00;18.33;;;;;9.92;77.89;103184.72;2010685;28;3573185;-78
2024/02/03 00:32:51;;;;;;;;;16.75;16.50;;;;;9.93;77.93;103182.97;2051524;28;1827430;-77
2024/02/03 00:34:02;;;;;;;;;22.33;17.00;;;;;9.92;77.91;103189.09;2001056;28;3572166;-77
2024/02/03 00:35:15;;;;;;;;;20.67;17.33;;;;;9.92;77.83;103182.09;2031863;28;3559623;-77
2024/02/03 00:36:26;;;;;;;;;18.33;18.00;;;;;9.93;77.65;103182.97;2017829;28;2816408;-77
2024/02/03 00:37:37;;;;;;;;;23.00;18.67;;;;;9.92;77.97;103176.84;2022507;28;3577323;-78
2024/02/03 00:38:50;;;;;;;;;22.00;17.80;;;;;9.93;77.75;103189.09;2046390;27;3577657;-77
2024/02/03 00:40:03;;;;;;;;;15.83;12.33;;;;;9.94;77.89;103184.72;2063072;27;1836765;-78
2024/02/03 00:41:16;;;;;;;;;21.60;17.40;;;;;9.93;77.98;103177.72;2026962;27;2834589;-77
2024/02/03 00:42:28;;;;;;;;;21.60;20.40;;;;;9.93;77.83;103172.44;2019480;28;3570048;-78
2024/02/03 00:43:40;;;;;;;;;19.00;15.33;;;;;9.94;77.88;103176.84;2040421;27;3550245;-77
2024/02/03 00:44:51;;;;;;;;;19.00;19.00;;;;;9.93;77.83;103181.22;2043551;27;1839877;-78
2024/02/03 00:46:02;;;;;;;;;20.00;17.33;;;;;9.95;77.75;103171.59;2009382;27;3574217;-77
2024/02/03 00:47:14;;;;;;;;;19.33;17.00;;;;;9.95;77.92;103173.38;2046671;27;3561671;-77
2024/02/03 00:48:25;;;;;;;;;12.00;10.00;;;;;9.95;77.88;103174.22;2045992;27;2783615;-78
2024/02/03 00:49:38;;;;;;;;;21.17;18.50;;;;;9.96;77.88;103164.59;2066005;27;2832548;-78
2024/02/03 00:50:49;;;;;;;;;15.50;13.00;;;;;9.95;78.13;103166.34;2038783;27;1841960;-78
2024/02/03 00:52:04;;;;;;;;;23.29;19.57;;;;;9.97;78.00;103171.63;2061042;27;1829433;-77
2024/02/03 00:53:15;;;;;;;;;17.33;16.67;;;;;9.97;77.98;103166.38;2032490;27;2826424;-78
2024/02/03 00:54:26;;;;;;;;;21.67;18.33;;;;;9.98;77.73;103166.38;2031117;27;3564804;-78
2024/02/03 00:55:37;;;;;;;;;19.50;17.50;;;;;9.98;77.99;103162.88;2034175;27;2829413;-78
2024/02/03 00:56:48;;;;;;;;;15.00;14.00;;;;;9.97;77.56;103164.63;2017942;28;2790843;-78
2024/02/03 00:57:59;;;;;;;;;18.50;14.50;;;;;9.97;77.76;103155.88;2038714;27;2811748;-78
2024/02/03 00:59:11;;;;;;;;;14.00;12.50;;;;;9.96;78.11;103157.63;2010829;28;2791211;-77
2024/02/03 01:00:24;;;;;;;;;20.00;17.00;;;;;9.97;78.27;103153.25;1998472;28;2833622;-78
2024/02/03 01:01:38;;;;;;;;;21.71;20.00;;;;;9.98;77.63;103158.50;2030236;28;1831584;-78
2024/02/03 01:02:51;;;;;;;;;20.00;17.00;;;;;9.97;78.11;103148.88;2043488;28;2835646;-78
2024/02/03 01:04:02;;;;;;;;;19.00;15.00;;;;;9.98;78.17;103154.97;2015877;28;2823740;-78
2024/02/03 01:05:13;;;;;;;;;19.00;18.00;;;;;10.00;78.24;103155.91;2029819;27;1832562;-78
2024/02/03 01:06:25;;;;;;;;;19.67;18.67;;;;;9.97;78.04;103154.13;2031658;27;3565806;-78
2024/02/03 01:07:37;;;;;;;;;20.00;17.67;;;;;9.99;78.17;103151.50;2044591;27;2824330;-78
2024/02/03 01:08:48;;;;;;;;;23.33;15.00;;;;;9.99;78.12;103154.13;2015772;28;2825352;-78
2024/02/03 01:09:59;;;;;;;;;22.00;19.00;;;;;10.00;77.87;103153.28;2016530;28;3563790;-78
2024/02/03 01:11:10;;;;;;;;;22.00;17.25;;;;;10.00;78.08;103153.28;2050550;27;1834660;-78
2024/02/03 01:12:22;;;;;;;;;20.33;18.33;;;;;10.00;78.06;103151.50;2006571;27;3564831;-78
2024/02/03 01:13:33;;;;;;;;;16.25;13.00;;;;;10.02;78.09;103154.16;2054371;27;1831575;-77
2024/02/03 01:14:45;;;;;;;;;22.67;18.00;;;;;10.02;78.20;103148.91;1999916;27;3557509;-78
2024/02/03 01:15:55;;;;;;;;;20.00;16.50;;;;;10.01;77.88;103155.03;2026542;28;2831508;-78
2024/02/03 01:17:07;;;;;;;;;18.00;16.67;;;;;10.02;78.04;103152.41;2010054;28;3555535;-78
2024/02/03 01:18:18;;;;;;;;;15.00;13.00;;;;;10.03;78.26;103153.28;2042709;27;2807549;-78
2024/02/03 01:19:29;;;;;;;;;16.00;14.00;;;;;10.02;78.33;103152.41;2024358;27;2799178;-78
2024/02/03 01:20:41;;;;;;;;;16.67;14.00;;;;;10.03;78.07;103148.03;2017235;28;3532526;-77
2024/02/03 01:21:53;;;;;;;;;22.00;16.67;;;;;10.04;77.93;103146.28;2022970;28;3574241;-77
2024/02/03 01:23:04;;;;;;;;;22.50;19.00;;;;;10.04;77.90;103138.41;2040979;27;2831511;-78
2024/02/03 01:24:15;;;;;;;;;16.00;15.50;;;;;10.04;78.02;103143.66;2014893;27;2798144;-78
2024/02/03 01:25:26;;;;;;;;;22.50;15.50;;;;;10.05;77.98;103142.81;2039915;27;2824205;-78
2024/02/03 01:26:37;;;;;;;;;17.00;14.50;;;;;10.04;78.21;103136.66;2018506;27;2806506;-78
2024/02/03 01:27:49;;;;;;;;;17.67;16.33;;;;;10.06;78.36;103141.91;2021830;27;2814995;-78
2024/02/03 01:29:03;;;;;;;;;17.71;15.86;;;;;10.05;78.17;103141.03;2063317;27;1832075;-78
2024/02/03 01:30:17;;;;;;;;;15.83;14.00;;;;;10.06;78.18;103142.81;2063131;27;1827362;-78
2024/02/03 01:31:27;;;;;;;;;17.00;14.00;;;;;10.06;78.33;103137.56;2000752;28;2809655;-77
2024/02/03 01:32:38;;;;;;;;;17.00;16.50;;;;;10.06;78.26;103140.19;2018291;27;2805518;-78
2024/02/03 01:33:49;;;;;;;;;14.75;13.75;;;;;10.08;77.90;103140.19;2052948;27;1835761;-78
2024/02/03 01:35:00;;;;;;;;;13.50;13.50;;;;;10.07;78.19;103141.94;2007967;27;2802350;-78
2024/02/03 01:36:11;;;;;;;;;13.50;12.00;;;;;10.08;78.19;103132.28;2026075;27;2796069;-78
2024/02/03 01:37:22;;;;;;;;;17.50;13.00;;;;;10.08;78.09;103146.31;2024794;27;2814887;-78
2024/02/03 01:38:35;;;;;;;;;17.67;14.67;;;;;10.06;78.05;103145.44;2032397;27;2805460;-78
2024/02/03 01:39:46;;;;;;;;;16.00;15.00;;;;;10.08;78.48;103146.31;2019409;28;2809609;-78
2024/02/03 01:40:57;;;;;;;;;17.00;14.50;;;;;10.08;78.18;103145.44;2025022;27;2812762;-78
2024/02/03 01:42:08;;;;;;;;;15.50;13.50;;;;;10.08;78.29;103138.44;2018637;28;2799174;-78
2024/02/03 01:43:19;;;;;;;;;14.00;13.00;;;;;10.10;78.18;103144.56;2017051;28;2811724;-78
2024/02/03 01:44:31;;;;;;;;;17.00;15.00;;;;;10.09;78.18;103141.94;2013670;27;2816929;-78
2024/02/03 01:45:42;;;;;;;;;22.00;15.67;;;;;10.09;78.12;103142.84;2009100;27;2818018;-77
2024/02/03 01:46:58;;;;;;;;;16.71;15.14;;;;;10.09;78.72;103145.47;2063130;27;1832024;-78
2024/02/03 01:48:15;;;;;;;;;15.50;15.50;;;;;10.10;78.15;103146.34;2061589;27;1835755;-78
2024/02/03 01:49:29;;;;;;;;;17.00;16.00;;;;;10.10;78.15;103146.34;2009078;27;2810683;-78
2024/02/03 01:50:48;;;;;;;;;20.60;19.40;;;;;10.09;78.40;103149.84;2028916;27;2826283;-78
2024/02/03 01:51:59;;;;;;;;;18.00;15.00;;;;;10.10;78.28;103149.84;2009257;27;2819011;-78
2024/02/03 01:53:13;;;;;;;;;17.50;14.50;;;;;10.11;78.27;103145.47;2013205;27;2802338;-78
2024/02/03 01:54:27;;;;;;;;;16.67;15.33;;;;;10.10;78.18;103149.84;1991682;28;2809707;-78
2024/02/03 01:55:38;;;;;;;;;13.25;12.75;;;;;10.11;78.26;103148.09;2027839;27;1845166;-78
2024/02/03 01:56:54;;;;;;;;;15.40;14.60;;;;;10.11;78.33;103146.34;2046841;27;1835810;-78
2024/02/03 01:58:05;;;;;;;;;13.50;12.50;;;;;10.11;78.07;103148.09;2020903;27;2789834;-78
2024/02/03 01:59:16;;;;;;;;;16.00;16.00;;;;;10.12;78.18;103152.50;2009275;28;2809594;-78
2024/02/03 02:00:27;;;;;;;;;15.50;15.50;;;;;10.11;78.33;103150.72;2003906;28;2805861;-78
2024/02/03 02:01:38;;;;;;;;;21.00;16.00;;;;;10.12;77.94;103152.50;1999105;28;2818972;-77
2024/02/03 02:02:49;;;;;;;;;14.00;10.00;;;;;10.12;77.80;103149.88;2015878;28;2778392;-78
2024/02/03 02:04:00;;;;;;;;;11.50;9.50;;;;;10.12;78.62;103150.72;2042467;28;2783680;-78
2024/02/03 02:05:11;;;;;;;;;17.00;14.00;;;;;10.12;78.26;103148.09;2035661;27;2808077;-78
2024/02/03 02:06:22;;;;;;;;;14.00;11.50;;;;;10.13;78.25;103143.72;2024496;27;2792951;-78
2024/02/03 02:07:41;;;;;;;;;14.25;13.75;;;;;10.13;77.82;103138.47;2060417;27;1829468;-78
2024/02/03 02:08:52;;;;;;;;;14.00;12.00;;;;;10.12;78.30;103141.97;2008858;27;2789863;-78
2024/02/03 02:10:03;;;;;;;;;16.00;16.00;;;;;10.12;78.17;103147.25;2024748;27;2787806;-78
2024/02/03 02:11:14;;;;;;;;;15.00;13.00;;;;;10.13;78.17;103147.25;2007231;28;2801330;-78
2024/02/03 02:12:27;;;;;;;;;20.50;15.17;;;;;10.11;78.26;103148.97;2032516;27;2817959;-78
2024/02/03 02:13:38;;;;;;;;;14.00;14.00;;;;;10.11;78.25;103141.09;2017412;28;2805423;-78
2024/02/03 02:14:49;;;;;;;;;15.00;13.50;;;;;10.13;78.29;103141.97;2031795;28;2796120;-78
2024/02/03 02:16:00;;;;;;;;;15.00;12.50;;;;;10.15;78.23;103141.13;2009276;28;2798141;-78
2024/02/03 02:17:11;;;;;;;;;16.00;13.50;;;;;10.13;78.30;103138.47;2006367;28;2814866;-78
2024/02/03 02:18:23;;;;;;;;;16.00;15.00;;;;;10.14;78.35;103134.97;2005150;27;2820042;-78
2024/02/03 02:19:37;;;;;;;;;15.29;13.86;;;;;10.13;78.29;103127.97;2031178;27;1825371;-78
2024/02/03 02:20:52;;;;;;;;;16.00;14.43;;;;;10.13;78.14;103136.72;2056780;27;1827425;-78
2024/02/03 02:22:03;;;;;;;;;14.50;14.00;;;;;10.15;78.23;103135.88;2023753;28;2799230;-78
2024/02/03 02:23:13;;;;;;;;;18.50;16.50;;;;;10.16;78.41;103140.25;2011484;27;2806509;-78
2024/02/03 02:24:24;;;;;;;;;12.00;12.00;;;;;10.15;78.29;103125.38;2026600;27;2794524;-78
2024/02/03 02:25:35;;;;;;;;;11.00;11.00;;;;;10.15;78.11;103130.63;2050984;27;2795107;-78
2024/02/03 02:26:47;;;;;;;;;14.00;14.00;;;;;10.14;78.23;103124.47;2026749;27;2798160;-78
2024/02/03 02:27:58;;;;;;;;;18.00;13.00;;;;;10.15;78.45;103122.72;2018575;27;2806512;-78
2024/02/03 02:29:08;;;;;;;;;17.00;15.50;;;;;10.15;78.14;103120.09;2044150;27;2811732;-78
2024/02/03 02:30:20;;;;;;;;;16.00;13.00;;;;;10.15;78.03;103122.72;2023996;27;2825261;-78
2024/02/03 02:31:31;;;;;;;;;10.50;10.50;;;;;10.13;78.22;103118.34;2022562;27;2789866;-78
2024/02/03 02:32:44;;;;;;;;;15.00;13.50;;;;;10.16;78.29;103127.09;2047427;27;2794029;-78
2024/02/03 02:33:55;;;;;;;;;13.00;12.00;;;;;10.16;78.61;103124.47;2009526;27;2786753;-78
2024/02/03 02:35:07;;;;;;;;;14.40;12.20;;;;;10.15;78.29;103122.72;2036109;27;1827848;-77
2024/02/03 02:36:18;;;;;;;;;16.50;12.50;;;;;10.16;78.30;103121.84;2030703;27;2801348;-77
2024/02/03 02:37:30;;;;;;;;;14.80;14.20;;;;;10.15;78.43;103125.38;2029132;28;1827460;-78
2024/02/03 02:38:44;;;;;;;;;16.33;14.50;;;;;10.16;78.24;103121.84;2056317;27;1823230;-78
2024/02/03 02:39:54;;;;;;;;;11.50;11.50;;;;;10.15;78.23;103122.72;2007608;27;2786780;-78
2024/02/03 02:41:08;;;;;;;;;8.00;4.00;;;;;10.15;78.31;103114.84;2044046;27;3472110;-78
2024/02/03 02:42:19;;;;;;;;;15.33;12.33;;;;;10.15;78.11;103114.84;2022967;28;2805451;-78
2024/02/03 02:43:29;;;;;;;;;13.50;12.50;;;;;10.15;78.13;103115.69;2021330;28;2791915;-78
2024/02/03 02:44:41;;;;;;;;;17.00;14.00;;;;;10.15;78.20;103114.84;2026337;28;1832081;-78
2024/02/03 02:45:52;;;;;;;;;13.50;13.50;;;;;10.15;78.16;103120.97;2022016;28;2793989;-77
2024/02/03 02:47:03;;;;;;;;;16.50;13.00;;;;;10.15;78.13;103120.09;2016064;27;2799265;-78
2024/02/03 02:48:14;;;;;;;;;9.00;8.00;;;;;10.16;78.15;103121.84;2019776;27;3462764;-78
2024/02/03 02:49:25;;;;;;;;;17.00;15.00;;;;;10.16;78.19;103128.00;2048806;27;2804429;-78
2024/02/03 02:50:36;;;;;;;;;14.00;12.00;;;;;10.15;78.08;103128.00;2048559;27;2790892;-78
2024/02/03 02:51:47;;;;;;;;;12.00;12.00;;;;;10.16;78.16;103119.22;2048089;27;2796061;-78
2024/02/03 02:52:58;;;;;;;;;15.50;11.00;;;;;10.16;78.18;103128.00;2050175;27;2810671;-78
2024/02/03 02:54:09;;;;;;;;;12.00;11.00;;;;;10.15;78.23;103122.72;2021197;27;2789808;-78
2024/02/03 02:55:20;;;;;;;;;11.00;11.00;;;;;10.17;78.09;103128.88;2040715;28;2791929;-78
2024/02/03 02:56:31;;;;;;;;;12.00;10.00;;;;;10.17;78.05;103124.50;2043095;27;2787776;-78
2024/02/03 02:57:42;;;;;;;;;14.00;13.50;;;;;10.16;78.48;103122.72;2026583;27;2802810;-78
2024/02/03 02:58:53;;;;;;;;;11.00;11.00;;;;;10.16;78.30;103121.84;2024630;27;2786726;-78
2024/02/03 03:00:04;;;;;;;;;11.00;11.00;;;;;10.16;78.00;103121.84;2040915;28;2791977;-78
2024/02/03 03:01:17;;;;;;;;;11.00;10.00;;;;;10.17;78.36;103118.38;2005493;27;2789863;-78
2024/02/03 03:02:28;;;;;;;;;12.00;9.75;;;;;10.17;77.97;103118.38;2045185;27;1848337;-78
2024/02/03 03:03:39;;;;;;;;;13.25;11.75;;;;;10.15;78.12;103118.34;2034024;28;1841986;-78
2024/02/03 03:04:51;;;;;;;;;14.25;10.75;;;;;10.17;78.33;103121.00;2035616;27;1838845;-78
2024/02/03 03:06:05;;;;;;;;;16.29;14.00;;;;;10.17;78.09;103115.72;2060333;27;1834630;-78
2024/02/03 03:07:17;;;;;;;;;12.25;12.25;;;;;10.17;78.10;103115.72;2038128;28;1844122;-78
2024/02/03 03:08:27;;;;;;;;;12.50;10.00;;;;;10.17;78.08;103116.63;2021952;28;2806501;-78
2024/02/03 03:09:38;;;;;;;;;11.50;11.00;;;;;10.17;78.08;103107.84;2015547;28;2787731;-78
2024/02/03 03:10:49;;;;;;;;;12.00;10.33;;;;;10.17;77.62;103105.22;2055325;28;1846121;-78
2024/02/03 03:12:00;;;;;;;;;13.50;12.00;;;;;10.17;77.97;103107.84;2001720;27;2798550;-78
2024/02/03 03:13:11;;;;;;;;;12.00;10.00;;;;;10.16;77.87;103103.44;2023990;27;2780440;-78
2024/02/03 03:14:22;;;;;;;;;10.33;9.33;;;;;10.17;78.31;103105.22;2048984;27;3495041;-78
2024/02/03 03:15:33;;;;;;;;;11.50;10.00;;;;;10.17;77.76;103103.47;2036861;28;2777357;-78
2024/02/03 03:16:44;;;;;;;;;14.00;9.00;;;;;10.18;78.19;103104.34;2021207;28;2772155;-78
2024/02/03 03:17:55;;;;;;;;;14.50;10.25;;;;;10.18;78.16;103096.44;2049482;28;1845064;-78
2024/02/03 03:19:06;;;;;;;;;14.00;11.00;;;;;10.18;78.07;103099.97;2014771;28;2794053;-78
2024/02/03 03:20:18;;;;;;;;;11.80;10.80;;;;;10.18;78.27;103099.06;2018720;28;1819046;-78
2024/02/03 03:21:29;;;;;;;;;12.33;11.67;;;;;10.18;78.37;103093.81;1997449;27;2788765;-78
2024/02/03 03:22:39;;;;;;;;;12.00;10.50;;;;;10.19;77.95;103098.22;2024272;27;2794048;-78
2024/02/03 03:23:50;;;;;;;;;11.33;10.33;;;;;10.18;78.35;103093.81;2042499;27;3495054;-78
2024/02/03 03:25:01;;;;;;;;;10.33;8.33;;;;;10.20;78.45;103100.84;2049384;27;3476313;-78
2024/02/03 03:26:12;;;;;;;;;14.33;10.67;;;;;10.20;78.20;103097.34;2033405;28;3522132;-78
2024/02/03 03:27:23;;;;;;;;;11.00;11.00;;;;;10.19;78.51;103096.47;2042405;27;2782572;-78
2024/02/03 03:28:34;;;;;;;;;11.67;9.00;;;;;10.20;78.01;103097.34;2062760;27;1846783;-78
2024/02/03 03:29:49;;;;;;;;;12.50;9.00;;;;;10.20;78.22;103092.06;2010783;27;2774211;-78
2024/02/03 03:30:59;;;;;;;;;12.00;9.00;;;;;10.20;78.15;103098.22;2023084;28;3499157;-78
2024/02/03 03:32:11;;;;;;;;;10.67;9.33;;;;;10.20;78.27;103100.84;2025128;28;1816959;-78
2024/02/03 03:33:21;;;;;;;;;11.00;9.00;;;;;10.20;78.21;103097.34;2003941;27;2758602;-78
2024/02/03 03:34:32;;;;;;;;;12.50;9.25;;;;;10.21;78.20;103096.47;2064694;27;1818076;-78
2024/02/03 03:35:43;;;;;;;;;11.00;9.50;;;;;10.21;78.14;103101.72;2010824;27;2774238;-78
2024/02/03 03:36:56;;;;;;;;;13.00;10.60;;;;;10.21;78.48;103102.63;2058429;27;1821153;-78
2024/02/03 03:38:06;;;;;;;;;10.50;9.00;;;;;10.21;78.20;103096.47;2025746;28;2767989;-78
2024/02/03 03:39:17;;;;;;;;;10.00;9.50;;;;;10.21;78.42;103096.47;2029780;28;2766931;-78
2024/02/03 03:40:28;;;;;;;;;13.00;10.50;;;;;10.20;77.85;103106.09;2043271;27;2789814;-78
2024/02/03 03:41:39;;;;;;;;;9.67;9.33;;;;;10.20;78.16;103097.34;2049007;27;2759639;-78
2024/02/03 03:42:50;;;;;;;;;8.50;8.50;;;;;10.20;78.22;103100.84;2041970;28;2753394;-78
2024/02/03 03:44:01;;;;;;;;;12.50;9.50;;;;;10.20;78.19;103103.47;2042119;28;2785670;-78
2024/02/03 03:45:12;;;;;;;;;9.67;8.33;;;;;10.20;78.30;103108.72;2041678;27;3471142;-78
2024/02/03 03:46:23;;;;;;;;;12.67;10.00;;;;;10.22;78.27;103111.41;2057469;27;1848194;-78
2024/02/03 03:47:33;;;;;;;;;9.67;8.33;;;;;10.21;78.22;103105.25;2010708;27;3452343;-78
2024/02/03 03:48:44;;;;;;;;;12.00;8.33;;;;;10.21;78.20;103112.25;2050784;27;2753492;-78
2024/02/03 03:49:55;;;;;;;;;8.00;8.00;;;;;10.22;78.41;103108.75;2048336;27;2733696;-78
2024/02/03 03:51:08;;;;;;;;;6.60;5.80;;;;;10.21;78.40;103110.50;2061972;27;2745117;-78
2024/02/03 03:52:18;;;;;;;;;9.50;9.00;;;;;10.23;78.20;103113.13;2010840;27;2754454;-78
2024/02/03 03:53:30;;;;;;;;;9.50;7.00;;;;;10.22;78.21;103106.13;2059768;27;1821168;-78
2024/02/03 03:54:40;;;;;;;;;10.00;7.00;;;;;10.24;78.27;103107.03;2024926;28;3484634;-78
2024/02/03 03:55:51;;;;;;;;;10.00;8.67;;;;;10.24;77.86;103109.66;2041109;27;3472130;-78
2024/02/03 03:57:02;;;;;;;;;9.33;8.33;;;;;10.24;77.98;103109.66;2047294;27;2740203;-78
2024/02/03 03:58:13;;;;;;;;;8.33;7.67;;;;;10.26;78.21;103112.28;2039895;27;3453810;-78
2024/02/03 03:59:25;;;;;;;;;7.00;7.00;;;;;10.25;78.16;103106.13;2060178;27;2742997;-78
2024/02/03 04:00:38;;;;;;;;;7.17;7.17;;;;;10.26;78.21;103104.38;2038985;27;2746134;-78
2024/02/03 04:01:51;;;;;;;;;9.50;8.67;;;;;10.27;78.14;103106.16;2026551;28;2737765;-78
2024/02/03 04:03:02;;;;;;;;;9.00;7.33;;;;;10.27;78.30;103099.16;2018818;27;1834613;-78
2024/02/03 04:04:13;;;;;;;;;9.33;6.67;;;;;10.28;78.13;103105.28;2012962;27;2744119;-78
2024/02/03 04:05:25;;;;;;;;;7.00;6.00;;;;;10.27;78.42;103093.91;2035336;28;3459688;-78
2024/02/03 04:06:38;;;;;;;;;8.33;7.67;;;;;10.27;78.14;103090.41;2053263;27;2737769;-78
2024/02/03 04:07:49;;;;;;;;;11.67;10.67;;;;;10.26;78.27;103091.25;1998021;28;3511724;-78
2024/02/03 04:09:00;;;;;;;;;8.67;8.00;;;;;10.28;78.22;103095.66;2053033;27;2736731;-78
2024/02/03 04:10:13;;;;;;;;;8.00;7.17;;;;;10.28;78.23;103089.50;2037848;27;2740896;-78
2024/02/03 04:11:24;;;;;;;;;7.67;6.67;;;;;10.28;78.19;103098.28;2011037;27;3448701;-78
2024/02/03 04:12:34;;;;;;;;;9.00;7.00;;;;;10.29;78.05;103091.28;2043723;27;2746107;-78
2024/02/03 04:13:48;;;;;;;;;11.33;10.00;;;;;10.30;78.59;103093.91;2041460;28;3494006;-78
2024/02/03 04:15:01;;;;;;;;;5.67;5.67;;;;;10.32;78.21;103096.56;2053351;28;2740881;-78
2024/02/03 04:16:12;;;;;;;;;8.00;6.33;;;;;10.31;78.36;103094.78;2007802;27;2750277;-78
2024/02/03 04:17:23;;;;;;;;;10.67;8.00;;;;;10.30;78.32;103088.66;2042523;28;2757001;-78
2024/02/03 04:18:34;;;;;;;;;6.67;6.67;;;;;10.31;78.40;103090.41;2053163;27;2736737;-78
2024/02/03 04:19:44;;;;;;;;;9.67;6.33;;;;;10.31;78.23;103095.69;2011823;27;2753842;-78
2024/02/03 04:20:55;;;;;;;;;9.33;7.67;;;;;10.31;78.15;103098.31;2059689;27;2746113;-78
2024/02/03 04:22:12;;;;;;;;;3.50;3.00;;;;;10.30;78.15;103091.28;2037218;27;2748193;-78
2024/02/03 04:23:22;;;;;;;;;9.00;8.00;;;;;10.33;78.12;103095.69;2009268;27;3443979;-78
2024/02/03 04:24:34;;;;;;;;;8.00;6.33;;;;;10.33;78.21;103091.31;2052059;27;2735749;-78
2024/02/03 04:25:45;;;;;;;;;11.00;8.67;;;;;10.34;78.31;103090.44;2003280;28;2753478;-78
2024/02/03 04:26:56;;;;;;;;;7.00;7.00;;;;;10.34;78.20;103089.56;2042289;27;3459631;-78
2024/02/03 04:28:07;;;;;;;;;8.33;8.00;;;;;10.34;78.04;103090.44;2034587;27;3454427;-78
2024/02/03 04:29:18;;;;;;;;;10.00;8.33;;;;;10.35;78.23;103094.81;2043231;28;2751398;-78
2024/02/03 04:30:28;;;;;;;;;7.33;7.00;;;;;10.37;78.46;103091.31;2038614;27;2745146;-78
2024/02/03 04:31:42;;;;;;;;;8.33;6.33;;;;;10.34;78.21;103084.31;2059672;27;2740913;-78
2024/02/03 04:32:53;;;;;;;;;8.33;6.33;;;;;10.35;78.44;103092.19;2013126;27;2746511;-78
2024/02/03 04:34:05;;;;;;;;;8.33;5.67;;;;;10.37;78.37;103091.31;2059642;27;2742986;-78
2024/02/03 04:35:15;;;;;;;;;8.00;7.00;;;;;10.38;78.26;103093.06;2011375;27;3459618;-78
2024/02/03 04:36:26;;;;;;;;;6.00;6.00;;;;;10.38;78.05;103093.06;2046717;27;2752367;-78
2024/02/03 04:37:37;;;;;;;;;9.00;7.00;;;;;10.37;77.93;103092.19;2053272;28;2725254;-78
2024/02/03 04:38:50;;;;;;;;;9.17;8.00;;;;;10.38;78.26;103093.06;2029494;28;2755492;-78
2024/02/03 04:40:01;;;;;;;;;6.67;6.33;;;;;10.38;78.29;103096.59;2003432;27;2750245;-78
2024/02/03 04:41:24;;;;;;;;;7.67;6.33;;;;;10.39;78.26;103086.94;2037362;28;2746163;-78
2024/02/03 04:42:38;;;;;;;;;7.17;7.17;;;;;10.39;78.20;103090.47;2047596;28;2742982;-78
2024/02/03 04:43:48;;;;;;;;;8.00;7.00;;;;;10.40;78.13;103093.94;2003604;28;2739953;-78
2024/02/03 04:44:59;;;;;;;;;8.67;5.33;;;;;10.40;78.02;103083.44;2051205;28;2750261;-78
2024/02/03 04:46:10;;;;;;;;;7.33;7.33;;;;;10.40;78.38;103083.44;2002865;27;2735673;-78
2024/02/03 04:47:22;;;;;;;;;9.75;8.00;;;;;10.40;78.38;103079.06;2060314;27;2756515;-78
2024/02/03 04:48:32;;;;;;;;;13.67;8.67;;;;;10.41;78.22;103083.47;2032863;27;3484610;-77
2024/02/03 04:49:43;;;;;;;;;9.00;9.00;;;;;10.41;78.42;103083.47;2055180;27;2752713;-78
2024/02/03 04:50:53;;;;;;;;;12.33;8.00;;;;;10.43;78.38;103083.47;1994763;28;3480465;-78
2024/02/03 04:52:05;;;;;;;;;8.00;8.00;;;;;10.42;78.18;103076.47;2052778;27;2742989;-78
2024/02/03 04:53:18;;;;;;;;;8.83;7.33;;;;;10.42;78.05;103084.34;2034253;27;2740914;-78
2024/02/03 04:54:29;;;;;;;;;10.00;10.00;;;;;10.43;78.24;103086.09;2003522;28;2769113;-78
2024/02/03 04:55:40;;;;;;;;;8.33;8.33;;;;;10.41;78.54;103075.56;2050143;28;2735675;-78
2024/02/03 04:56:53;;;;;;;;;8.00;6.50;;;;;10.43;78.23;103072.94;2029566;27;2740906;-78
2024/02/03 04:58:03;;;;;;;;;10.00;5.67;;;;;10.43;78.04;103078.19;2010520;27;2761820;-77
2024/02/03 04:59:14;;;;;;;;;9.67;9.67;;;;;10.41;78.46;103075.56;2047366;27;3488793;-78
2024/02/03 05:00:25;;;;;;;;;10.33;9.00;;;;;10.41;78.16;103074.69;2056960;28;1841976;-78
2024/02/03 05:01:36;;;;;;;;;8.33;8.00;;;;;10.41;78.33;103064.19;1995575;28;3459640;-77
2024/02/03 05:02:47;;;;;;;;;10.00;10.00;;;;;10.41;78.40;103072.94;2020018;28;2783612;-77
2024/02/03 05:03:58;;;;;;;;;11.75;8.00;;;;;10.43;78.39;103073.84;2051513;28;1834775;-78
2024/02/03 05:05:09;;;;;;;;;10.67;8.00;;;;;10.44;78.13;103074.72;2023320;28;3472079;-78
2024/02/03 05:06:23;;;;;;;;;14.67;11.67;;;;;10.43;78.33;103072.94;2040247;27;3499193;-78
2024/02/03 05:07:34;;;;;;;;;9.67;9.67;;;;;10.43;77.97;103071.19;2026344;28;3493003;-78
2024/02/03 05:08:45;;;;;;;;;11.33;9.00;;;;;10.43;77.95;103078.19;2030269;28;3474213;-78
2024/02/03 05:09:56;;;;;;;;;7.67;6.67;;;;;10.42;78.20;103065.94;2032790;28;3456533;-78
2024/02/03 05:11:07;;;;;;;;;11.33;10.33;;;;;10.42;78.28;103071.22;2039053;27;3495042;-78
2024/02/03 05:12:17;;;;;;;;;9.00;7.33;;;;;10.44;78.30;103074.72;2049227;27;2750780;-78
2024/02/03 05:13:28;;;;;;;;;11.67;11.00;;;;;10.42;78.42;103065.94;2044733;27;3503367;-78
2024/02/03 05:14:39;;;;;;;;;10.00;8.67;;;;;10.44;78.26;103077.34;2039830;27;2755558;-78
2024/02/03 05:15:50;;;;;;;;;7.33;6.33;;;;;10.44;78.32;103075.59;2041900;27;3466895;-78
2024/02/03 05:17:02;;;;;;;;;8.00;7.75;;;;;10.44;78.23;103074.72;2053648;27;2740897;-78
2024/02/03 05:18:14;;;;;;;;;9.75;8.00;;;;;10.44;78.15;103069.47;2018409;28;1828440;-78
2024/02/03 05:19:27;;;;;;;;;9.33;9.33;;;;;10.44;78.33;103066.81;2051572;28;2737786;-78
2024/02/03 05:20:38;;;;;;;;;14.33;9.67;;;;;10.44;78.34;103070.34;2001734;27;3506473;-77